createdAt,value
2023-02-16T00:01:59.698Z,12.87
2023-02-16T00:04:29.311Z,12.73
2023-02-16T00:07:02.122Z,13.98
2023-02-16T00:09:29.877Z,13.73
2023-02-16T00:12:18.516Z,13.47
2023-02-16T00:14:50.951Z,13.23
2023-02-16T00:17:18.792Z,13.83
2023-02-16T00:19:48.541Z,13.53
2023-02-16T00:22:20.529Z,14.60
2023-02-16T00:24:48.240Z,12.80
2023-02-16T00:27:20.485Z,13.37
2023-02-16T00:29:51.770Z,14.43
2023-02-16T00:32:19.646Z,14.53
2023-02-16T00:34:51.463Z,14.53
2023-02-16T00:37:19.453Z,13.60
2023-02-16T00:39:47.456Z,13.37
2023-02-16T00:42:22.558Z,13.57
2023-02-16T00:44:53.833Z,14.17
2023-02-16T00:47:30.629Z,14.33
2023-02-16T00:50:00.865Z,14.37
2023-02-16T00:52:38.871Z,13.23
2023-02-16T00:55:11.535Z,14.13
2023-02-16T00:57:44.201Z,13.97
2023-02-16T01:00:20.033Z,13.63
2023-02-16T01:02:51.872Z,14.53
2023-02-16T01:05:21.969Z,14.53
2023-02-16T01:08:07.401Z,14.40
2023-02-16T01:10:56.353Z,14.63
2023-02-16T01:13:26.667Z,13.13
2023-02-16T01:15:58.314Z,14.50
2023-02-16T01:18:26.310Z,14.93
2023-02-16T01:20:56.495Z,13.20
2023-02-16T01:23:26.769Z,13.27
2023-02-16T01:25:54.631Z,14.38
2023-02-16T01:28:26.575Z,14.07
2023-02-16T01:30:57.573Z,14.10
2023-02-16T01:33:25.339Z,13.23
2023-02-16T01:35:56.671Z,12.90
2023-02-16T01:38:28.652Z,14.47
2023-02-16T01:41:08.266Z,15.13
2023-02-16T01:43:52.313Z,13.45
2023-02-16T01:46:28.691Z,13.27
2023-02-16T01:48:59.876Z,14.17
2023-02-16T01:51:32.787Z,13.47
2023-02-16T01:54:12.629Z,13.90
2023-02-16T01:56:44.811Z,13.35
2023-02-16T01:59:23.535Z,12.43
2023-02-16T02:01:56.437Z,13.03
2023-02-16T02:04:56.467Z,12.77
2023-02-16T02:07:31.726Z,12.73
2023-02-16T02:10:08.392Z,12.70
2023-02-16T02:12:42.304Z,13.50
2023-02-16T02:15:12.801Z,13.37
2023-02-16T02:20:22.353Z,11.23
2023-02-16T02:23:33.185Z,13.33
2023-02-16T02:26:28.153Z,12.47
2023-02-16T02:29:10.846Z,12.47
2023-02-16T02:31:53.733Z,12.10
2023-02-16T02:34:31.746Z,11.33
2023-02-16T02:37:08.964Z,12.53
2023-02-16T02:39:44.969Z,11.80
2023-02-16T02:42:22.663Z,13.63
2023-02-16T02:44:55.617Z,12.20
2023-02-16T02:47:40.315Z,12.63
2023-02-16T02:50:33.568Z,11.87
2023-02-16T02:53:11.176Z,12.27
2023-02-16T02:56:00.846Z,12.23
2023-02-16T02:58:56.241Z,12.65
2023-02-16T03:01:26.646Z,11.97
2023-02-16T03:06:31.297Z,11.00
2023-02-16T03:09:05.791Z,11.50
2023-02-16T03:11:51.411Z,12.37
2023-02-16T03:14:23.784Z,12.57
2023-02-16T03:17:15.671Z,12.30
2023-02-16T03:20:08.495Z,11.43
2023-02-16T03:22:57.301Z,12.40
2023-02-16T03:25:49.648Z,12.20
2023-02-16T03:28:39.137Z,12.20
2023-02-16T03:31:09.472Z,12.03
2023-02-16T03:33:42.126Z,12.32
2023-02-16T03:36:13.595Z,13.03
2023-02-16T03:38:43.622Z,12.37
2023-02-16T03:41:11.450Z,12.13
2023-02-16T03:43:41.506Z,11.93
2023-02-16T03:46:09.589Z,10.90
2023-02-16T03:48:38.951Z,12.10
2023-02-16T03:51:08.783Z,11.30
2023-02-16T03:53:38.869Z,11.05
2023-02-16T03:56:11.511Z,11.43
2023-02-16T03:58:39.412Z,11.27
2023-02-16T04:01:07.412Z,11.73
2023-02-16T04:03:37.441Z,11.47
2023-02-16T04:06:06.890Z,11.60
2023-02-16T04:08:37.053Z,11.13
2023-02-16T04:11:26.201Z,11.85
2023-02-16T04:13:53.293Z,11.50
2023-02-16T04:16:21.122Z,11.97
2023-02-16T04:18:50.759Z,11.60
2023-02-16T04:21:21.692Z,11.60
2023-02-16T04:23:49.502Z,12.00
2023-02-16T04:26:19.078Z,11.33
2023-02-16T04:28:48.939Z,11.45
2023-02-16T04:31:16.835Z,10.35
2023-02-16T04:33:46.661Z,11.10
2023-02-16T04:36:16.568Z,9.98
2023-02-16T04:38:45.814Z,10.35
2023-02-16T04:41:15.464Z,9.57
2023-02-16T04:43:43.401Z,10.23
2023-02-16T04:46:11.213Z,10.20
2023-02-16T04:48:40.946Z,11.00
2023-02-16T04:51:10.846Z,10.23
2023-02-16T04:53:38.576Z,11.32
2023-02-16T04:56:12.564Z,10.37
2023-02-16T04:58:42.862Z,11.33
2023-02-16T05:03:40.376Z,10.03
2023-02-16T05:06:10.435Z,10.02
2023-02-16T05:08:38.233Z,9.68
2023-02-16T05:11:24.940Z,9.83
2023-02-16T05:14:16.695Z,9.63
2023-02-16T05:16:44.620Z,9.70
2023-02-16T05:19:14.675Z,9.33
2023-02-16T05:21:42.378Z,8.75
2023-02-16T05:24:14.884Z,9.10
2023-02-16T05:26:46.118Z,8.13
2023-02-16T05:29:13.875Z,8.67
2023-02-16T05:31:43.508Z,8.03
2023-02-16T05:34:13.646Z,8.38
2023-02-16T05:36:41.660Z,7.78
2023-02-16T05:39:11.290Z,8.13
2023-02-16T05:41:41.292Z,7.85
2023-02-16T05:44:10.883Z,8.43
2023-02-16T05:46:42.650Z,8.23
2023-02-16T05:49:12.596Z,9.07
2023-02-16T05:51:40.347Z,8.63
2023-02-16T05:54:10.251Z,8.73
2023-02-16T05:56:40.193Z,8.48
2023-02-16T05:59:08.105Z,11.93
2023-02-16T06:01:39.229Z,8.53
2023-02-16T06:04:09.476Z,8.20
2023-02-16T06:06:38.176Z,7.18
2023-02-16T06:09:09.163Z,8.50
2023-02-16T06:11:39.354Z,7.90
2023-02-16T06:14:09.285Z,7.45
2023-02-16T06:16:42.082Z,7.07
2023-02-16T06:19:13.385Z,7.43
2023-02-16T06:21:41.996Z,7.57
2023-02-16T06:24:14.261Z,8.37
2023-02-16T06:26:44.234Z,8.57
2023-02-16T06:29:14.175Z,7.75
2023-02-16T06:31:45.287Z,7.55
2023-02-16T06:34:13.123Z,7.37
2023-02-16T06:36:42.985Z,8.70
2023-02-16T06:39:12.727Z,8.40
2023-02-16T06:41:41.025Z,9.63
2023-02-16T06:44:17.086Z,8.67
2023-02-16T06:46:47.950Z,9.10
2023-02-16T06:49:21.630Z,9.00
2023-02-16T06:51:50.986Z,9.17
2023-02-16T06:54:21.223Z,9.10
2023-02-16T06:56:50.881Z,8.93
2023-02-16T06:59:20.992Z,10.02
2023-02-16T07:01:50.069Z,9.15
2023-02-16T07:04:19.725Z,9.23
2023-02-16T07:06:50.036Z,9.40
2023-02-16T07:09:18.268Z,9.30
2023-02-16T07:11:47.898Z,8.50
2023-02-16T07:14:19.853Z,9.73
2023-02-16T07:16:49.986Z,9.57
2023-02-16T07:19:19.394Z,9.05
2023-02-16T07:21:47.235Z,8.90
2023-02-16T07:24:14.951Z,8.53
2023-02-16T07:26:45.054Z,8.40
2023-02-16T07:29:12.898Z,9.10
2023-02-16T07:31:40.715Z,8.87
2023-02-16T07:34:08.883Z,9.17
2023-02-16T07:36:39.857Z,9.17
2023-02-16T07:39:09.613Z,9.83
2023-02-16T07:41:39.790Z,8.95
2023-02-16T07:44:08.087Z,9.05
2023-02-16T07:46:38.130Z,8.87
2023-02-16T07:49:08.056Z,9.45
2023-02-16T07:51:37.852Z,8.85
2023-02-16T07:54:07.450Z,8.90
2023-02-16T07:56:36.555Z,9.38
2023-02-16T07:59:05.349Z,9.17
2023-02-16T08:01:34.276Z,9.90
2023-02-16T08:04:04.376Z,8.60
2023-02-16T08:06:32.222Z,8.75
2023-02-16T08:08:59.919Z,9.13
2023-02-16T08:11:29.122Z,8.70
2023-02-16T08:13:56.942Z,8.40
2023-02-16T08:16:35.330Z,8.47
2023-02-16T08:19:06.429Z,8.97
2023-02-16T08:21:35.604Z,9.23
2023-02-16T08:24:09.677Z,8.60
2023-02-16T08:26:41.386Z,7.90
2023-02-16T08:29:15.030Z,7.87
2023-02-16T08:31:42.978Z,8.50
2023-02-16T08:34:11.036Z,9.07
2023-02-16T08:36:43.873Z,9.10
2023-02-16T08:39:14.950Z,8.80
2023-02-16T08:41:49.177Z,8.10
2023-02-16T08:44:18.340Z,9.03
2023-02-16T08:46:49.897Z,8.33
2023-02-16T08:49:21.230Z,8.60
2023-02-16T08:51:54.780Z,7.80
2023-02-16T08:54:27.819Z,9.03
2023-02-16T08:57:01.572Z,7.70
2023-02-16T08:59:29.665Z,8.87
2023-02-16T09:02:00.225Z,8.40
2023-02-16T09:04:29.433Z,8.03
2023-02-16T09:07:01.783Z,7.70
2023-02-16T09:09:31.872Z,8.43
2023-02-16T09:12:00.987Z,8.48
2023-02-16T09:14:31.138Z,8.30
2023-02-16T09:17:01.170Z,7.90
2023-02-16T09:19:28.996Z,8.05
2023-02-16T09:21:59.116Z,8.00
2023-02-16T09:24:32.249Z,8.27
2023-02-16T09:27:03.563Z,8.57
2023-02-16T09:29:34.544Z,8.50
2023-02-16T09:32:06.581Z,9.00
2023-02-16T09:34:34.293Z,8.83
2023-02-16T09:37:02.333Z,8.67
2023-02-16T09:39:35.636Z,9.03
2023-02-16T09:42:21.539Z,9.03
2023-02-16T09:45:00.359Z,9.07
2023-02-16T09:47:31.466Z,9.97
2023-02-16T09:50:05.734Z,9.13
2023-02-16T09:52:37.777Z,10.53
2023-02-16T09:55:15.115Z,9.60
2023-02-16T09:57:58.803Z,10.27
2023-02-16T10:00:43.876Z,10.50
2023-02-16T10:03:24.956Z,9.77
2023-02-16T10:06:02.077Z,11.17
2023-02-16T10:08:38.819Z,10.50
2023-02-16T10:11:34.952Z,11.27
2023-02-16T10:14:10.292Z,10.40
2023-02-16T10:16:43.876Z,10.50
2023-02-16T10:19:22.433Z,10.70
2023-02-16T10:21:56.417Z,11.07
2023-02-16T10:24:29.168Z,10.77
2023-02-16T10:27:06.284Z,10.77
2023-02-16T10:29:37.716Z,11.73
2023-02-16T10:32:19.026Z,12.77
2023-02-16T10:34:51.341Z,12.30
2023-02-16T10:37:32.157Z,12.27
2023-02-16T10:40:17.833Z,12.90
2023-02-16T10:42:53.844Z,13.37
2023-02-16T10:45:31.940Z,13.47
2023-02-16T10:48:02.242Z,13.63
2023-02-16T10:50:37.993Z,13.05
2023-02-16T10:53:12.554Z,14.53
2023-02-16T10:55:42.602Z,14.60
2023-02-16T10:58:22.737Z,15.57
2023-02-16T11:01:00.722Z,16.17
2023-02-16T11:03:33.509Z,15.70
2023-02-16T11:06:14.505Z,15.93
2023-02-16T11:08:51.930Z,18.10
2023-02-16T11:11:23.118Z,17.00
2023-02-16T11:13:58.585Z,17.07
2023-02-16T11:16:30.205Z,17.93
2023-02-16T11:19:00.337Z,18.37
2023-02-16T11:21:46.086Z,16.55
2023-02-16T11:24:24.336Z,16.73
2023-02-16T11:27:02.253Z,17.70
2023-02-16T11:29:33.747Z,17.97
2023-02-16T11:32:07.894Z,18.63
2023-02-16T11:34:39.931Z,18.73
2023-02-16T11:37:16.490Z,18.40
2023-02-16T11:39:52.471Z,18.73
2023-02-16T11:42:30.101Z,19.00
2023-02-16T11:45:02.092Z,19.37
2023-02-16T11:47:36.178Z,19.93
2023-02-16T11:50:22.120Z,19.77
2023-02-16T11:52:54.727Z,18.63
2023-02-16T11:55:30.028Z,17.73
2023-02-16T11:58:14.915Z,18.50
2023-02-16T12:00:47.857Z,18.47
2023-02-16T12:03:36.720Z,18.63
2023-02-16T12:06:20.820Z,20.23
2023-02-16T12:09:04.021Z,18.03
2023-02-16T12:11:44.144Z,18.27
2023-02-16T12:14:23.207Z,18.00
2023-02-16T12:17:00.124Z,18.00
2023-02-16T12:19:39.913Z,17.90
2023-02-16T12:22:20.784Z,17.85
2023-02-16T12:25:03.865Z,18.50
2023-02-16T12:27:40.376Z,18.63
2023-02-16T12:30:27.533Z,18.10
2023-02-16T12:33:11.138Z,17.43
2023-02-16T12:35:57.068Z,18.30
2023-02-16T12:38:37.528Z,17.13
2023-02-16T12:43:40.295Z,17.77
2023-02-16T12:46:15.920Z,17.45
2023-02-16T12:48:49.213Z,19.03
2023-02-16T12:51:23.915Z,18.67
2023-02-16T12:54:02.457Z,18.57
2023-02-16T12:56:38.367Z,17.50
2023-02-16T12:59:18.594Z,18.80
2023-02-16T13:01:51.224Z,18.58
2023-02-16T13:04:27.600Z,18.43
2023-02-16T13:07:03.214Z,17.40
2023-02-16T13:09:44.162Z,19.97
2023-02-16T13:12:27.343Z,19.23
2023-02-16T13:15:05.511Z,19.60
2023-02-16T13:17:40.837Z,19.30
2023-02-16T13:20:18.508Z,19.67
2023-02-16T13:23:25.903Z,19.67
2023-02-16T13:26:16.035Z,18.97
2023-02-16T13:29:03.439Z,18.90
2023-02-16T13:31:46.797Z,19.77
2023-02-16T13:34:42.398Z,18.80
2023-02-16T13:37:34.195Z,18.70
2023-02-16T13:40:20.249Z,19.43
2023-02-16T13:43:09.507Z,18.40
2023-02-16T13:45:42.159Z,19.10
2023-02-16T13:48:17.372Z,20.50
2023-02-16T13:50:48.645Z,20.03
2023-02-16T13:53:21.256Z,19.47
2023-02-16T13:55:50.817Z,20.30
2023-02-16T13:58:33.859Z,20.25
2023-02-16T14:01:38.909Z,19.80
2023-02-16T14:04:34.547Z,19.47
2023-02-16T14:07:32.453Z,19.27
2023-02-16T14:10:02.110Z,19.27
2023-02-16T14:12:34.358Z,19.80
2023-02-16T14:15:05.070Z,19.67
2023-02-16T14:17:35.839Z,19.13
2023-02-16T14:20:07.474Z,19.00
2023-02-16T14:22:41.900Z,20.67
2023-02-16T14:25:38.543Z,18.47
2023-02-16T14:28:27.929Z,18.60
2023-02-16T14:30:58.183Z,18.53
2023-02-16T14:33:41.379Z,19.33
2023-02-16T14:36:16.135Z,20.27
2023-02-16T14:38:47.150Z,19.67
2023-02-16T14:41:29.090Z,18.97
2023-02-16T14:44:26.012Z,19.83
2023-02-16T14:47:03.100Z,20.27
2023-02-16T14:50:03.734Z,19.63
2023-02-16T14:53:08.766Z,18.90
2023-02-16T14:55:59.665Z,20.10
2023-02-16T14:58:32.882Z,20.37
2023-02-16T15:01:07.390Z,19.67
2023-02-16T15:03:48.295Z,20.33
2023-02-16T15:06:24.221Z,20.03
2023-02-16T15:09:02.441Z,20.50
2023-02-16T15:11:34.591Z,21.67
2023-02-16T15:14:11.722Z,20.97
2023-02-16T15:16:42.421Z,19.83
2023-02-16T15:19:18.123Z,21.10
2023-02-16T15:22:08.611Z,21.60
2023-02-16T15:27:04.147Z,20.90
2023-02-16T15:29:33.350Z,21.93
2023-02-16T15:32:02.184Z,23.50
2023-02-16T15:34:35.561Z,22.67
2023-02-16T15:37:25.777Z,21.57
2023-02-16T15:40:23.162Z,23.20
2023-02-16T15:45:28.132Z,22.50
2023-02-16T15:48:14.571Z,23.87
2023-02-16T15:50:46.142Z,23.07
2023-02-16T15:53:25.093Z,22.43
2023-02-16T15:55:53.316Z,22.47
2023-02-16T15:58:22.024Z,22.37
2023-02-16T16:00:49.915Z,22.53
2023-02-16T16:03:22.550Z,21.37
2023-02-16T16:06:02.217Z,21.33
2023-02-16T16:08:32.335Z,22.45
2023-02-16T16:11:00.220Z,22.50
2023-02-16T16:13:31.326Z,21.93
2023-02-16T16:16:02.093Z,22.00
2023-02-16T16:18:43.536Z,30.00
2023-02-16T16:21:18.964Z,22.63
2023-02-16T16:24:03.663Z,22.33
2023-02-16T16:26:33.580Z,24.90
2023-02-16T16:29:01.957Z,24.27
2023-02-16T16:31:42.338Z,35.10
2023-02-16T16:36:49.925Z,22.53
2023-02-16T16:39:26.571Z,21.53
2023-02-16T16:42:26.803Z,21.43
2023-02-16T16:44:58.458Z,22.08
2023-02-16T16:47:33.355Z,22.77
2023-02-16T16:50:04.008Z,21.37
2023-02-16T16:52:38.208Z,21.30
2023-02-16T16:55:26.229Z,22.33
2023-02-16T16:57:58.054Z,20.43
2023-02-16T17:00:28.914Z,21.27
2023-02-16T17:03:01.203Z,21.20
2023-02-16T17:05:28.985Z,21.23
2023-02-16T17:07:56.880Z,22.07
2023-02-16T17:10:31.608Z,21.03
2023-02-16T17:13:00.762Z,20.63
2023-02-16T17:15:40.864Z,21.50
2023-02-16T17:18:14.607Z,21.05
2023-02-16T17:20:44.525Z,20.23
2023-02-16T17:23:13.298Z,20.05
2023-02-16T17:25:44.852Z,20.43
2023-02-16T17:28:16.728Z,19.77
2023-02-16T17:30:44.584Z,21.63
2023-02-16T17:33:14.867Z,20.83
2023-02-16T17:35:44.425Z,21.30
2023-02-16T17:38:14.210Z,21.80
2023-02-16T17:40:49.704Z,23.85
2023-02-16T17:43:19.152Z,25.87
2023-02-16T17:45:49.921Z,25.63
2023-02-16T17:48:20.608Z,26.27
2023-02-16T17:50:49.321Z,22.50
2023-02-16T17:53:18.803Z,22.93
2023-02-16T17:55:50.730Z,22.47
2023-02-16T17:58:19.032Z,24.07
2023-02-16T18:00:47.406Z,23.77
2023-02-16T18:03:19.958Z,22.80
2023-02-16T18:05:47.983Z,22.07
2023-02-16T18:08:15.706Z,22.90
2023-02-16T18:10:49.484Z,21.40
2023-02-16T18:13:18.049Z,22.20
2023-02-16T18:15:48.405Z,22.47
2023-02-16T18:18:17.887Z,24.20
2023-02-16T18:20:46.229Z,22.90
2023-02-16T18:23:14.596Z,22.90
2023-02-16T18:25:44.149Z,22.67
2023-02-16T18:28:14.923Z,21.92
2023-02-16T18:30:42.865Z,21.97
2023-02-16T18:33:12.534Z,21.80
2023-02-16T18:35:40.373Z,22.33
2023-02-16T18:38:10.624Z,20.30
2023-02-16T18:40:38.421Z,20.88
2023-02-16T18:43:06.102Z,21.03
2023-02-16T18:45:41.473Z,19.67
2023-02-16T18:48:09.428Z,21.57
2023-02-16T18:50:40.065Z,21.20
2023-02-16T18:55:37.704Z,20.20
2023-02-16T18:58:08.324Z,23.70
2023-02-16T19:00:39.850Z,20.97
2023-02-16T19:03:08.121Z,21.80
2023-02-16T19:05:35.913Z,19.93
2023-02-16T19:08:03.707Z,21.60
2023-02-16T19:10:31.606Z,22.53
2023-02-16T19:13:01.159Z,21.87
2023-02-16T19:15:31.473Z,21.58
2023-02-16T19:18:02.438Z,23.75
2023-02-16T19:20:30.906Z,20.10
2023-02-16T19:23:02.177Z,21.33
2023-02-16T19:25:31.994Z,19.93
2023-02-16T19:27:59.685Z,21.63
2023-02-16T19:30:29.295Z,22.00
2023-02-16T19:32:57.236Z,21.63
2023-02-16T19:35:26.313Z,21.17
2023-02-16T19:37:55.903Z,21.10
2023-02-16T19:40:26.768Z,23.33
2023-02-16T19:42:54.439Z,23.33
2023-02-16T19:45:24.244Z,22.63
2023-02-16T19:47:54.067Z,22.60
2023-02-16T19:50:23.952Z,21.83
2023-02-16T19:52:54.891Z,23.25
2023-02-16T19:55:22.691Z,23.23
2023-02-16T19:57:50.814Z,22.07
2023-02-16T20:00:19.088Z,22.47
2023-02-16T20:02:46.852Z,22.47
2023-02-16T20:05:14.821Z,21.07
2023-02-16T20:07:44.424Z,21.77
2023-02-16T20:10:13.682Z,23.15
2023-02-16T20:12:41.475Z,22.23
2023-02-16T20:15:10.359Z,22.37
2023-02-16T20:17:38.066Z,22.40
2023-02-16T20:20:06.936Z,20.87
2023-02-16T20:22:36.984Z,22.40
2023-02-16T20:25:04.997Z,22.65
2023-02-16T20:27:36.391Z,23.27
2023-02-16T20:30:06.197Z,24.37
2023-02-16T20:32:34.330Z,23.75
2023-02-16T20:35:07.350Z,24.13
2023-02-16T20:37:35.208Z,25.73
2023-02-16T20:40:03.158Z,24.90
2023-02-16T20:42:36.447Z,25.07
2023-02-16T20:45:04.689Z,24.57
2023-02-16T20:47:36.749Z,24.67
2023-02-16T20:50:06.658Z,25.40
2023-02-16T20:52:36.777Z,24.33
2023-02-16T20:55:05.107Z,24.17
2023-02-16T20:57:35.328Z,24.10
2023-02-16T21:00:03.702Z,23.13
2023-02-16T21:02:31.436Z,23.03
2023-02-16T21:04:59.301Z,22.00
2023-02-16T21:07:28.074Z,24.03
2023-02-16T21:09:55.957Z,22.50
2023-02-16T21:12:23.773Z,24.13
2023-02-16T21:14:53.248Z,22.83
2023-02-16T21:17:23.500Z,22.05
2023-02-16T21:19:51.375Z,24.02
2023-02-16T21:22:19.289Z,24.03
2023-02-16T21:24:47.118Z,23.87
2023-02-16T21:27:15.114Z,24.80
2023-02-16T21:29:43.034Z,22.80
2023-02-16T21:32:14.445Z,24.37
2023-02-16T21:35:13.486Z,24.10
2023-02-16T21:37:41.465Z,24.37
2023-02-16T21:40:32.299Z,26.43
2023-02-16T21:43:00.198Z,26.60
2023-02-16T21:45:28.128Z,26.03
2023-02-16T21:48:17.003Z,26.30
2023-02-16T21:50:47.042Z,27.00
2023-02-16T21:53:14.803Z,26.65
2023-02-16T21:56:02.605Z,27.43
2023-02-16T21:58:35.934Z,27.30
2023-02-16T22:01:05.607Z,27.70
2023-02-16T22:03:36.840Z,28.52
2023-02-16T22:06:05.627Z,25.40
2023-02-16T22:08:39.725Z,28.80
2023-02-16T22:11:11.663Z,27.13
2023-02-16T22:13:40.144Z,25.67
2023-02-16T22:16:17.035Z,26.40
2023-02-16T22:18:49.069Z,26.67
2023-02-16T22:21:20.862Z,25.00
2023-02-16T22:23:50.786Z,26.57
2023-02-16T22:26:25.510Z,24.77
2023-02-16T22:28:56.030Z,23.67
2023-02-16T22:31:25.278Z,22.77
2023-02-16T22:34:02.457Z,24.23
2023-02-16T22:36:30.776Z,24.67
2023-02-16T22:38:58.676Z,23.87
2023-02-16T22:41:30.515Z,22.37
2023-02-16T22:44:00.068Z,22.57
2023-02-16T22:46:28.852Z,22.55
2023-02-16T22:49:02.836Z,21.73
2023-02-16T22:51:31.610Z,22.57
2023-02-16T22:54:02.840Z,22.43
2023-02-16T22:56:31.831Z,22.00
2023-02-16T22:59:00.758Z,20.90
2023-02-16T23:01:31.399Z,20.20
2023-02-16T23:04:03.994Z,20.80
2023-02-16T23:06:35.466Z,22.17
2023-02-16T23:09:09.735Z,21.00
2023-02-16T23:11:37.453Z,19.57
2023-02-16T23:14:18.093Z,20.80
2023-02-16T23:16:47.597Z,20.77
2023-02-16T23:19:22.558Z,21.38
2023-02-16T23:21:50.385Z,21.63
2023-02-16T23:24:25.667Z,21.43
2023-02-16T23:26:54.267Z,22.30
2023-02-16T23:29:24.485Z,20.83
2023-02-16T23:31:55.093Z,20.48
2023-02-16T23:34:24.286Z,20.70
2023-02-16T23:36:54.201Z,20.97
2023-02-16T23:39:22.052Z,20.45
2023-02-16T23:41:49.773Z,19.20
2023-02-16T23:44:19.801Z,20.40
2023-02-16T23:46:49.842Z,18.73
2023-02-16T23:49:17.557Z,20.77
2023-02-16T23:51:48.964Z,18.63
2023-02-16T23:54:18.542Z,20.20
2023-02-16T23:56:46.249Z,19.58
2023-02-16T23:59:16.205Z,19.73
